createdAt,value
2019-06-20T00:01:37.038Z,15.67
2019-06-20T00:04:05.406Z,16.27
2019-06-20T00:06:33.835Z,16.20
2019-06-20T00:09:02.690Z,16.13
2019-06-20T00:11:31.139Z,15.80
2019-06-20T00:13:59.541Z,15.80
2019-06-20T00:16:28.011Z,16.17
2019-06-20T00:18:56.421Z,16.40
2019-06-20T00:21:24.810Z,16.07
2019-06-20T00:23:53.227Z,15.70
2019-06-20T00:26:21.950Z,15.13
2019-06-20T00:28:50.351Z,16.23
2019-06-20T00:31:18.763Z,17.70
2019-06-20T00:33:47.160Z,15.40
2019-06-20T00:36:15.570Z,16.17
2019-06-20T00:38:43.957Z,14.80
2019-06-20T00:41:12.359Z,15.30
2019-06-20T00:43:41.040Z,15.87
2019-06-20T00:46:09.499Z,14.30
2019-06-20T00:48:38.006Z,14.03
2019-06-20T00:51:06.373Z,15.07
2019-06-20T00:53:34.766Z,13.87
2019-06-20T00:56:04.953Z,14.07
2019-06-20T00:58:33.451Z,13.63
2019-06-20T01:01:01.886Z,12.90
2019-06-20T01:03:30.280Z,14.17
2019-06-20T01:05:58.680Z,12.93
2019-06-20T01:08:27.086Z,13.80
2019-06-20T01:10:55.506Z,13.83
2019-06-20T01:13:32.955Z,14.03
2019-06-20T01:15:54.057Z,13.80
2019-06-20T01:18:22.532Z,13.57
2019-06-20T01:20:51.285Z,14.10
2019-06-20T01:23:19.694Z,12.87
2019-06-20T01:25:48.331Z,12.23
2019-06-20T01:28:26.403Z,13.80
2019-06-20T01:30:50.593Z,13.13
2019-06-20T01:33:19.068Z,12.70
2019-06-20T01:35:48.191Z,12.63
2019-06-20T01:38:16.600Z,12.40
2019-06-20T01:40:44.993Z,12.30
2019-06-20T01:43:13.565Z,13.10
2019-06-20T01:45:42.013Z,12.20
2019-06-20T01:48:10.397Z,13.47
2019-06-20T01:50:38.803Z,13.07
2019-06-20T01:53:07.197Z,13.60
2019-06-20T01:55:35.596Z,12.93
2019-06-20T01:58:03.989Z,13.20
2019-06-20T02:00:40.940Z,12.33
2019-06-20T02:03:09.347Z,11.90
2019-06-20T02:05:37.748Z,12.60
2019-06-20T02:08:06.204Z,12.63
2019-06-20T02:10:34.927Z,12.50
2019-06-20T02:13:03.324Z,12.67
2019-06-20T02:15:31.735Z,12.57
2019-06-20T02:18:00.351Z,12.20
2019-06-20T02:20:51.625Z,12.10
2019-06-20T02:23:20.514Z,12.20
2019-06-20T02:25:49.216Z,12.77
2019-06-20T02:28:17.662Z,13.30
2019-06-20T02:30:46.228Z,13.13
2019-06-20T02:33:14.904Z,14.13
2019-06-20T02:35:43.315Z,12.70
2019-06-20T02:38:11.741Z,13.20
2019-06-20T02:40:40.314Z,12.73
2019-06-20T02:43:09.099Z,15.50
2019-06-20T02:45:37.946Z,15.50
2019-06-20T02:48:06.670Z,15.93
2019-06-20T02:50:35.221Z,16.73
2019-06-20T02:53:04.964Z,17.83
2019-06-20T02:55:33.789Z,18.10
2019-06-20T02:58:02.273Z,17.93
2019-06-20T03:00:58.763Z,18.60
2019-06-20T03:03:28.400Z,19.13
2019-06-20T03:05:57.780Z,18.40
2019-06-20T03:08:27.021Z,19.90
2019-06-20T03:10:55.794Z,21.10
2019-06-20T03:13:24.324Z,21.17
2019-06-20T03:15:52.760Z,21.30
2019-06-20T03:18:21.246Z,21.53
2019-06-20T03:20:49.665Z,21.20
2019-06-20T03:23:18.413Z,21.57
2019-06-20T03:25:46.800Z,22.13
2019-06-20T03:28:15.221Z,22.33
2019-06-20T03:30:43.680Z,21.30
2019-06-20T03:33:12.189Z,21.73
2019-06-20T03:35:40.802Z,24.23
2019-06-20T03:38:09.190Z,24.17
2019-06-20T03:40:37.595Z,23.03
2019-06-20T03:43:06.063Z,23.90
2019-06-20T03:45:35.717Z,24.70
2019-06-20T03:48:04.693Z,24.63
2019-06-20T03:50:33.148Z,23.50
2019-06-20T03:53:01.873Z,22.37
2019-06-20T03:55:33.920Z,23.57
2019-06-20T03:58:02.493Z,23.63
2019-06-20T04:00:33.290Z,21.57
2019-06-20T04:03:01.987Z,21.70
2019-06-20T04:05:30.394Z,23.07
2019-06-20T04:07:59.060Z,19.93
2019-06-20T04:10:27.539Z,19.97
2019-06-20T04:12:56.168Z,20.20
2019-06-20T04:15:24.693Z,18.60
2019-06-20T04:17:53.092Z,19.57
2019-06-20T04:20:21.562Z,20.20
2019-06-20T04:22:49.945Z,18.73
2019-06-20T04:25:18.333Z,18.30
2019-06-20T04:27:46.735Z,19.43
2019-06-20T04:30:15.299Z,18.83
2019-06-20T04:32:43.984Z,19.80
2019-06-20T04:35:12.510Z,18.80
2019-06-20T04:37:40.918Z,21.20
2019-06-20T04:40:09.694Z,19.03
2019-06-20T04:42:38.075Z,18.30
2019-06-20T04:45:09.059Z,20.10
2019-06-20T04:47:37.491Z,22.60
2019-06-20T04:50:06.633Z,18.50
2019-06-20T04:52:35.031Z,23.07
2019-06-20T04:55:04.003Z,25.90
2019-06-20T04:57:32.489Z,23.80
2019-06-20T05:00:03.264Z,27.63
2019-06-20T05:02:34.234Z,20.97
2019-06-20T05:05:04.628Z,21.77
2019-06-20T05:07:33.058Z,21.03
2019-06-20T05:10:01.511Z,24.00
2019-06-20T05:12:29.896Z,24.93
2019-06-20T05:14:58.292Z,24.27
2019-06-20T05:17:26.706Z,23.97
2019-06-20T05:19:55.187Z,25.20
2019-06-20T05:22:23.896Z,26.03
2019-06-20T05:24:52.294Z,27.37
2019-06-20T05:27:21.668Z,26.40
2019-06-20T05:29:50.069Z,25.27
2019-06-20T05:32:18.467Z,22.80
2019-06-20T05:34:46.879Z,23.30
2019-06-20T05:37:15.270Z,24.83
2019-06-20T05:39:43.702Z,24.20
2019-06-20T05:42:12.099Z,24.33
2019-06-20T05:44:40.497Z,22.10
2019-06-20T05:47:13.596Z,24.17
2019-06-20T05:49:39.425Z,21.83
2019-06-20T05:52:07.818Z,24.23
2019-06-20T05:54:39.867Z,23.97
2019-06-20T05:57:10.849Z,24.80
2019-06-20T05:59:39.231Z,23.87
2019-06-20T06:02:07.994Z,23.17
2019-06-20T06:04:36.392Z,25.27
2019-06-20T06:07:05.180Z,24.60
2019-06-20T06:09:33.665Z,23.17
2019-06-20T06:12:02.077Z,22.57
2019-06-20T06:14:31.614Z,23.20
2019-06-20T06:17:00.362Z,22.50
2019-06-20T06:19:28.828Z,22.17
2019-06-20T06:21:57.323Z,22.40
2019-06-20T06:24:25.683Z,22.00
2019-06-20T06:26:54.085Z,23.13
2019-06-20T06:29:22.551Z,20.60
2019-06-20T06:31:50.997Z,21.83
2019-06-20T06:34:21.965Z,23.50
2019-06-20T06:36:49.680Z,21.63
2019-06-20T06:39:18.185Z,21.17
2019-06-20T06:41:46.587Z,21.43
2019-06-20T06:44:14.986Z,21.10
2019-06-20T06:46:52.088Z,21.57
2019-06-20T06:49:17.102Z,23.60
2019-06-20T06:51:45.491Z,18.50
2019-06-20T06:54:13.880Z,20.23
2019-06-20T06:56:42.317Z,18.97
2019-06-20T06:59:15.504Z,20.57
2019-06-20T07:01:43.958Z,18.63
2019-06-20T07:04:12.378Z,18.17
2019-06-20T07:06:40.842Z,20.23
2019-06-20T07:09:09.673Z,19.40
2019-06-20T07:11:38.223Z,19.53
2019-06-20T07:14:06.784Z,19.73
2019-06-20T07:16:35.241Z,18.57
2019-06-20T07:19:03.715Z,19.60
2019-06-20T07:21:32.148Z,21.20
2019-06-20T07:24:01.025Z,20.50
2019-06-20T07:26:29.501Z,19.97
2019-06-20T07:28:57.922Z,19.60
2019-06-20T07:31:26.338Z,20.20
2019-06-20T07:33:54.726Z,18.37
2019-06-20T07:36:23.263Z,18.70
2019-06-20T07:38:51.809Z,19.83
2019-06-20T07:41:20.213Z,20.20
2019-06-20T07:43:48.914Z,18.83
2019-06-20T07:46:17.597Z,20.73
2019-06-20T07:48:46.011Z,21.00
2019-06-20T07:51:14.405Z,19.80
2019-06-20T07:53:42.819Z,19.70
2019-06-20T07:56:11.279Z,18.40
2019-06-20T07:58:39.757Z,18.97
2019-06-20T08:01:08.216Z,19.90
2019-06-20T08:03:36.619Z,20.47
2019-06-20T08:06:05.483Z,20.33
2019-06-20T08:08:33.900Z,18.87
2019-06-20T08:11:02.380Z,18.77
2019-06-20T08:13:30.789Z,20.23
2019-06-20T08:15:59.223Z,18.40
2019-06-20T08:18:27.614Z,18.73
2019-06-20T08:20:56.115Z,18.53
2019-06-20T08:23:24.505Z,18.50
2019-06-20T08:25:52.905Z,16.50
2019-06-20T08:28:21.314Z,15.87
2019-06-20T08:30:49.701Z,14.10
2019-06-20T08:33:18.152Z,14.77
2019-06-20T08:35:46.552Z,14.80
2019-06-20T08:38:14.962Z,13.33
2019-06-20T08:40:43.355Z,13.40
2019-06-20T08:43:11.807Z,14.00
2019-06-20T08:45:42.191Z,13.90
2019-06-20T08:48:10.740Z,14.73
2019-06-20T08:50:40.351Z,14.67
2019-06-20T08:53:08.966Z,14.47
2019-06-20T08:55:38.189Z,12.90
2019-06-20T08:58:06.740Z,13.53
2019-06-20T09:00:37.363Z,13.77
2019-06-20T09:03:06.657Z,13.77
2019-06-20T09:05:35.258Z,13.53
2019-06-20T09:08:04.799Z,13.47
2019-06-20T09:10:41.248Z,12.70
2019-06-20T09:13:11.384Z,13.27
2019-06-20T09:15:40.167Z,12.50
2019-06-20T09:18:08.747Z,13.03
2019-06-20T09:20:37.573Z,11.90
2019-06-20T09:23:10.622Z,13.77
2019-06-20T09:25:38.790Z,12.80
2019-06-20T09:28:07.550Z,13.40
2019-06-20T09:30:37.212Z,14.27
2019-06-20T09:33:05.937Z,13.07
2019-06-20T09:35:34.534Z,12.70
2019-06-20T09:38:03.480Z,13.47
2019-06-20T09:40:32.111Z,12.67
2019-06-20T09:43:00.543Z,13.60
2019-06-20T09:45:29.268Z,12.87
2019-06-20T09:47:58.257Z,13.47
2019-06-20T09:50:27.760Z,12.83
2019-06-20T09:52:56.774Z,11.90
2019-06-20T09:55:25.250Z,13.33
2019-06-20T09:57:53.821Z,13.60
2019-06-20T10:00:24.934Z,12.87
2019-06-20T10:02:55.390Z,14.20
2019-06-20T10:05:24.413Z,12.10
2019-06-20T10:07:54.362Z,12.97
2019-06-20T10:10:25.975Z,12.40
2019-06-20T10:12:55.775Z,12.00
2019-06-20T10:15:28.592Z,12.63
2019-06-20T10:17:57.258Z,12.67
2019-06-20T10:20:27.000Z,13.50
2019-06-20T10:22:55.390Z,13.30
2019-06-20T10:25:23.856Z,11.47
2019-06-20T10:27:53.697Z,13.87
2019-06-20T10:30:24.420Z,12.90
2019-06-20T10:32:53.212Z,13.60
2019-06-20T10:35:21.920Z,12.10
2019-06-20T10:37:50.598Z,12.57
2019-06-20T10:40:20.227Z,12.33
2019-06-20T10:42:50.147Z,12.53
2019-06-20T10:45:21.089Z,13.10
2019-06-20T10:47:50.915Z,12.47
2019-06-20T10:50:20.727Z,11.77
2019-06-20T10:52:50.099Z,12.43
2019-06-20T10:55:19.289Z,12.27
2019-06-20T10:57:49.549Z,11.03
2019-06-20T11:03:58.745Z,12.10
2019-06-20T11:06:27.150Z,12.33
2019-06-20T11:08:55.569Z,11.30
2019-06-20T11:11:24.090Z,11.83
2019-06-20T11:13:52.530Z,10.80
2019-06-20T11:16:20.877Z,11.80
2019-06-20T11:18:49.295Z,11.90
2019-06-20T11:21:17.694Z,11.57
2019-06-20T11:23:47.358Z,11.63
2019-06-20T11:26:15.781Z,12.40
2019-06-20T11:28:44.783Z,12.00
2019-06-20T11:31:13.245Z,11.40
2019-06-20T11:33:42.087Z,11.57
2019-06-20T11:36:11.470Z,11.47
2019-06-20T11:38:40.708Z,12.30
2019-06-20T11:41:09.198Z,12.43
2019-06-20T11:43:38.384Z,11.17
2019-06-20T11:46:06.858Z,12.73
2019-06-20T11:48:36.754Z,10.87
2019-06-20T11:51:05.219Z,11.97
2019-06-20T11:53:35.299Z,11.50
2019-06-20T11:56:04.128Z,12.53
2019-06-20T11:58:32.595Z,11.87
2019-06-20T12:01:03.831Z,11.53
2019-06-20T12:03:31.117Z,11.30
2019-06-20T12:05:59.654Z,11.10
2019-06-20T12:08:28.152Z,11.30
2019-06-20T12:10:56.544Z,11.73
2019-06-20T12:13:24.941Z,11.13
2019-06-20T12:15:53.606Z,12.20
2019-06-20T12:18:22.007Z,12.53
2019-06-20T12:20:50.407Z,11.43
2019-06-20T12:23:18.832Z,11.67
2019-06-20T12:25:48.797Z,11.00
2019-06-20T12:28:17.341Z,12.53
2019-06-20T12:30:45.937Z,11.53
2019-06-20T12:33:14.646Z,12.20
2019-06-20T12:35:44.477Z,11.20
2019-06-20T12:38:15.123Z,11.50
2019-06-20T12:40:44.095Z,12.10
2019-06-20T12:43:12.494Z,10.87
2019-06-20T12:45:41.372Z,11.90
2019-06-20T12:48:10.987Z,10.30
2019-06-20T12:50:40.260Z,11.93
2019-06-20T12:53:09.521Z,11.80
2019-06-20T12:55:38.916Z,11.80
2019-06-20T12:58:08.096Z,12.60
2019-06-20T13:00:38.939Z,12.27
2019-06-20T13:03:07.086Z,12.03
2019-06-20T13:05:35.909Z,14.30
2019-06-20T13:08:06.435Z,13.90
2019-06-20T13:10:34.777Z,14.73
2019-06-20T13:13:03.156Z,13.93
2019-06-20T13:15:31.585Z,13.57
2019-06-20T13:18:00.039Z,13.27
2019-06-20T13:20:28.438Z,14.20
2019-06-20T13:22:56.848Z,14.30
2019-06-20T13:25:25.287Z,15.50
2019-06-20T13:27:53.624Z,14.67
2019-06-20T13:30:22.131Z,14.93
2019-06-20T13:32:50.520Z,15.60
2019-06-20T13:35:20.138Z,15.57
2019-06-20T13:37:49.869Z,14.93
2019-06-20T13:40:18.943Z,16.90
2019-06-20T13:42:48.077Z,17.10
2019-06-20T13:45:22.001Z,19.60
2019-06-20T13:47:50.540Z,19.17
2019-06-20T13:50:19.568Z,19.13
2019-06-20T13:52:49.564Z,19.17
2019-06-20T13:55:18.320Z,19.83
2019-06-20T13:57:47.335Z,21.17
2019-06-20T14:00:18.468Z,20.13
2019-06-20T14:02:48.503Z,21.17
2019-06-20T14:05:17.301Z,21.80
2019-06-20T14:07:48.490Z,23.00
2019-06-20T14:10:16.821Z,22.53
2019-06-20T14:12:46.713Z,24.17
2019-06-20T14:15:16.361Z,23.60
2019-06-20T14:17:45.043Z,23.17
2019-06-20T14:20:16.161Z,22.53
2019-06-20T14:22:45.120Z,22.40
2019-06-20T14:25:14.160Z,20.90
2019-06-20T14:27:43.866Z,22.07
2019-06-20T14:30:13.393Z,21.67
2019-06-20T14:32:43.143Z,21.37
2019-06-20T14:35:12.426Z,21.53
2019-06-20T14:37:43.375Z,21.87
2019-06-20T14:40:12.921Z,21.37
2019-06-20T14:42:42.782Z,21.67
2019-06-20T14:45:12.481Z,23.00
2019-06-20T14:47:41.178Z,20.57
2019-06-20T14:50:10.783Z,24.40
2019-06-20T14:52:39.464Z,23.53
2019-06-20T14:55:08.543Z,23.53
2019-06-20T14:57:36.976Z,22.80
2019-06-20T15:00:09.323Z,24.27
2019-06-20T15:02:43.753Z,22.50
2019-06-20T15:05:17.229Z,21.60
2019-06-20T15:07:47.201Z,22.37
2019-06-20T15:10:21.203Z,21.60
2019-06-20T15:12:50.238Z,21.40
2019-06-20T15:15:19.289Z,18.43
2019-06-20T15:17:50.354Z,18.30
2019-06-20T15:20:18.336Z,18.50
2019-06-20T15:22:48.597Z,17.43
2019-06-20T15:25:20.470Z,17.00
2019-06-20T15:27:51.121Z,16.50
2019-06-20T15:30:19.514Z,16.10
2019-06-20T15:32:59.270Z,16.73
2019-06-20T15:35:18.078Z,18.47
2019-06-20T15:37:47.874Z,16.23
2019-06-20T15:40:16.740Z,16.40
2019-06-20T15:42:45.116Z,16.10
2019-06-20T15:45:13.669Z,13.80
2019-06-20T15:47:42.100Z,15.70
2019-06-20T15:50:14.022Z,14.30
2019-06-20T15:52:42.542Z,14.00
2019-06-20T15:55:11.401Z,11.60
2019-06-20T15:57:40.401Z,11.00
2019-06-20T16:00:10.543Z,11.27
2019-06-20T16:02:38.983Z,11.60
2019-06-20T16:05:08.423Z,12.03
2019-06-20T16:07:36.992Z,10.90
2019-06-20T16:10:08.500Z,11.03
2019-06-20T16:12:36.882Z,9.93
2019-06-20T16:15:09.564Z,11.77
2019-06-20T16:17:38.214Z,10.20
2019-06-20T16:20:08.145Z,10.00
2019-06-20T16:22:37.260Z,10.17
2019-06-20T16:25:07.628Z,11.07
2019-06-20T16:27:36.021Z,9.60
2019-06-20T16:30:07.104Z,11.47
2019-06-20T16:32:35.504Z,11.60
2019-06-20T16:35:06.988Z,11.50
2019-06-20T16:37:35.371Z,10.30
2019-06-20T16:40:05.459Z,11.50
2019-06-20T16:42:33.850Z,9.83
2019-06-20T16:45:02.254Z,9.77
2019-06-20T16:47:30.760Z,10.77
2019-06-20T16:49:59.158Z,10.47
2019-06-20T16:52:27.642Z,9.47
2019-06-20T16:54:56.089Z,10.40
2019-06-20T16:57:24.485Z,9.70
2019-06-20T16:59:52.910Z,9.23
2019-06-20T17:02:21.435Z,9.47
2019-06-20T17:04:50.149Z,8.40
2019-06-20T17:07:18.581Z,9.00
2019-06-20T17:09:47.082Z,9.00
2019-06-20T17:12:15.490Z,9.77
2019-06-20T17:14:43.873Z,8.37
2019-06-20T17:17:12.392Z,8.87
2019-06-20T17:19:42.240Z,9.37
2019-06-20T17:22:10.685Z,9.90
2019-06-20T17:24:38.068Z,9.30
2019-06-20T17:27:06.523Z,10.00
2019-06-20T17:29:34.936Z,10.27
2019-06-20T17:32:03.288Z,9.90
2019-06-20T17:34:31.767Z,9.07
2019-06-20T17:37:00.424Z,9.77
2019-06-20T17:39:29.176Z,9.10
2019-06-20T17:41:57.581Z,10.73
2019-06-20T17:44:27.530Z,9.83
2019-06-20T17:46:56.056Z,9.67
2019-06-20T17:49:24.444Z,10.00
2019-06-20T17:51:52.843Z,9.10
2019-06-20T17:54:21.263Z,8.83
2019-06-20T17:56:51.522Z,9.93
2019-06-20T17:59:22.662Z,9.90
2019-06-20T18:01:52.001Z,9.80
2019-06-20T18:04:20.401Z,9.33
2019-06-20T18:06:48.858Z,10.20
2019-06-20T18:09:17.272Z,10.20
2019-06-20T18:11:45.668Z,10.30
2019-06-20T18:14:16.749Z,9.90
2019-06-20T18:16:45.283Z,10.90
2019-06-20T18:19:13.655Z,11.70
2019-06-20T18:21:45.782Z,10.60
2019-06-20T18:24:13.717Z,9.40
2019-06-20T18:26:42.188Z,10.10
2019-06-20T18:29:10.588Z,10.10
2019-06-20T18:31:42.287Z,9.33
2019-06-20T18:34:09.113Z,10.97
2019-06-20T18:36:37.526Z,10.10
2019-06-20T18:39:08.408Z,9.27
2019-06-20T18:41:36.826Z,9.17
2019-06-20T18:44:05.322Z,11.07
2019-06-20T18:46:33.739Z,10.80
2019-06-20T18:49:02.125Z,11.57
2019-06-20T18:51:30.532Z,11.70
2019-06-20T18:53:58.967Z,12.03
2019-06-20T18:56:27.391Z,12.27
2019-06-20T18:58:55.743Z,11.53
2019-06-20T19:01:24.178Z,12.37
2019-06-20T19:03:52.693Z,12.37
2019-06-20T19:06:35.201Z,12.63
2019-06-20T19:08:51.827Z,11.70
2019-06-20T19:11:20.324Z,12.07
2019-06-20T19:13:48.763Z,13.50
2019-06-20T19:16:17.160Z,14.47
2019-06-20T19:18:45.621Z,15.20
2019-06-20T19:21:14.119Z,14.30
2019-06-20T19:23:42.800Z,16.23
2019-06-20T19:26:11.204Z,15.60
2019-06-20T19:28:39.619Z,16.27
2019-06-20T19:31:08.056Z,15.77
2019-06-20T19:33:36.467Z,17.17
2019-06-20T19:36:04.925Z,16.93
2019-06-20T19:38:34.144Z,16.53
2019-06-20T19:41:02.868Z,18.27
2019-06-20T19:43:32.594Z,17.23
2019-06-20T19:46:06.735Z,15.70
2019-06-20T19:48:39.059Z,15.37
2019-06-20T19:51:07.895Z,16.20
2019-06-20T19:53:41.528Z,17.83
2019-06-20T19:56:17.393Z,17.07
2019-06-20T19:58:51.687Z,16.07
2019-06-20T20:01:17.904Z,16.93
2019-06-20T20:03:46.300Z,15.90
2019-06-20T20:06:14.783Z,16.23
2019-06-20T20:08:43.188Z,16.60
2019-06-20T20:11:11.583Z,16.93
2019-06-20T20:13:40.030Z,16.20
2019-06-20T20:16:08.511Z,16.03
2019-06-20T20:18:36.881Z,16.13
2019-06-20T20:21:05.342Z,15.40
2019-06-20T20:23:33.867Z,17.20
2019-06-20T20:26:02.359Z,16.83
2019-06-20T20:28:31.131Z,19.33
2019-06-20T20:30:59.540Z,17.47
2019-06-20T20:33:28.026Z,17.23
2019-06-20T20:35:57.010Z,18.63
2019-06-20T20:38:28.588Z,16.33
2019-06-20T20:40:57.375Z,18.00
2019-06-20T20:43:25.827Z,17.77
2019-06-20T20:45:54.220Z,17.13
2019-06-20T20:48:22.616Z,17.77
2019-06-20T20:50:51.030Z,17.77
2019-06-20T20:53:19.445Z,17.70
2019-06-20T20:55:48.083Z,18.47
2019-06-20T20:58:16.506Z,18.33
2019-06-20T21:00:54.160Z,18.53
2019-06-20T21:03:22.863Z,17.63
2019-06-20T21:05:51.950Z,18.20
2019-06-20T21:08:20.454Z,18.20
2019-06-20T21:10:48.861Z,17.63
2019-06-20T21:13:17.273Z,18.00
2019-06-20T21:15:45.648Z,17.77
2019-06-20T21:18:14.039Z,18.07
2019-06-20T21:20:42.445Z,19.57
2019-06-20T21:23:10.875Z,19.33
2019-06-20T21:25:39.277Z,18.67
2019-06-20T21:28:07.737Z,20.13
2019-06-20T21:30:36.151Z,19.20
2019-06-20T21:33:04.608Z,18.70
2019-06-20T21:35:33.244Z,19.50
2019-06-20T21:38:01.632Z,18.70
2019-06-20T21:40:30.030Z,19.40
2019-06-20T21:42:58.692Z,18.87
2019-06-20T21:45:27.357Z,19.30
2019-06-20T21:47:55.778Z,19.10
2019-06-20T21:50:24.163Z,19.20
2019-06-20T21:52:53.102Z,19.77
2019-06-20T21:55:23.655Z,19.03
2019-06-20T21:57:52.030Z,18.93
2019-06-20T22:00:42.695Z,18.77
2019-06-20T22:03:11.629Z,18.40
2019-06-20T22:05:40.614Z,19.20
2019-06-20T22:08:09.135Z,19.30
2019-06-20T22:10:37.634Z,18.63
2019-06-20T22:13:06.374Z,18.97
2019-06-20T22:15:34.833Z,20.67
2019-06-20T22:18:03.575Z,19.33
2019-06-20T22:20:32.372Z,17.97
2019-06-20T22:23:00.736Z,20.47
2019-06-20T22:25:29.284Z,20.90
2019-06-20T22:27:57.675Z,21.10
2019-06-20T22:30:34.897Z,20.13
2019-06-20T22:33:03.332Z,21.53
2019-06-20T22:35:32.044Z,20.17
2019-06-20T22:38:00.465Z,21.67
2019-06-20T22:40:29.124Z,19.73
2019-06-20T22:42:57.575Z,20.07
2019-06-20T22:45:25.970Z,21.27
2019-06-20T22:47:54.367Z,19.70
2019-06-20T22:50:22.874Z,21.53
2019-06-20T22:52:51.539Z,20.60
2019-06-20T22:55:19.941Z,19.83
2019-06-20T22:57:48.635Z,20.13
2019-06-20T23:00:17.743Z,23.87
2019-06-20T23:02:46.161Z,23.43
2019-06-20T23:05:14.865Z,22.60
2019-06-20T23:07:43.286Z,21.27
2019-06-20T23:10:11.931Z,21.40
2019-06-20T23:12:40.399Z,20.67
2019-06-20T23:15:09.435Z,21.03
2019-06-20T23:17:38.121Z,20.53
2019-06-20T23:20:08.187Z,21.10
2019-06-20T23:25:02.080Z,19.70
2019-06-20T23:27:30.909Z,21.07
2019-06-20T23:29:59.314Z,19.27
2019-06-20T23:32:27.738Z,23.63
2019-06-20T23:34:56.362Z,22.70
2019-06-20T23:37:24.755Z,25.50
2019-06-20T23:39:53.177Z,24.23
2019-06-20T23:42:21.560Z,20.90
2019-06-20T23:44:49.970Z,23.47
2019-06-20T23:47:18.360Z,25.37
2019-06-20T23:49:47.027Z,24.57
2019-06-20T23:52:17.077Z,22.97
2019-06-20T23:54:45.477Z,23.63
2019-06-20T23:57:13.868Z,23.77
2019-06-20T23:59:42.289Z,21.97
